Time;durP1;ratioP1;P1;durP2;ratioP2;P2;SDS_P1;SDS_P2;PMS_P1;PMS_P2;Temp;Humidity;BMP_temperature;BMP_pressure;BME280_temperature;BME280_humidity;BME280_pressure;Samples;Min_cycle;Max_cycle;Signal;HPM_P1;HPM_P2
2022/04/15 00:00:25;;;;;;;8.75;5.32;;;6.70;99.90;;;;;;5094770;28;20051;-62
2022/04/15 00:02:50;;;;;;;10.90;5.93;;;6.70;99.90;;;;;;5092770;28;20040;-62
2022/04/15 00:08:01;;;;;;;7.95;4.97;;;6.80;99.90;;;;;;5094505;28;20051;-62
2022/04/15 00:10:28;;;;;;;10.27;5.10;;;7.60;99.90;;;;;;5094100;28;20056;-62
2022/04/15 00:12:57;;;;;;;11.73;5.75;;;6.90;99.90;;;;;;5094070;28;20048;-62
2022/04/15 00:15:23;;;;;;;10.35;5.53;;;6.90;99.90;;;;;;5075558;28;20472;-62
2022/04/15 00:17:49;;;;;;;11.10;5.25;;;7.00;99.90;;;;;;5092064;28;20119;-62
2022/04/15 00:20:15;;;;;;;12.57;5.80;;;7.00;99.90;;;;;;5093043;28;20169;-62
2022/04/15 00:22:41;;;;;;;11.20;4.93;;;7.10;99.90;;;;;;5092830;28;20469;-62
2022/04/15 00:25:07;;;;;;;9.52;5.20;;;7.00;99.90;;;;;;5091927;28;20047;-62
2022/04/15 00:27:34;;;;;;;9.55;5.25;;;7.20;99.90;;;;;;5093926;28;20048;-62
2022/04/15 00:30:00;;;;;;;10.32;5.00;;;;;;;;;;5093275;28;20038;-62
2022/04/15 00:32:27;;;;;;;12.90;4.78;;;7.20;99.90;;;;;;5092290;28;20080;-62
2022/04/15 00:34:53;;;;;;;8.95;5.72;;;;;;;;;;5093644;28;20044;-62
2022/04/15 00:37:19;;;;;;;7.07;4.57;;;7.10;99.90;;;;;;5091924;28;20051;-62
2022/04/15 00:39:46;;;;;;;12.07;4.97;;;7.40;99.90;;;;;;5093927;28;20028;-62
2022/04/15 00:42:12;;;;;;;11.95;5.72;;;7.30;99.90;;;;;;5093691;28;20042;-62
2022/04/15 00:44:38;;;;;;;12.05;5.57;;;7.20;99.90;;;;;;5092258;28;20547;-62
2022/04/15 00:47:09;;;;;;;8.50;5.15;;;7.30;99.90;;;;;;5092668;28;20120;-62
2022/04/15 00:49:35;;;;;;;10.70;5.60;;;;;;;;;;5090790;28;20083;-62
2022/04/15 00:52:03;;;;;;;10.05;5.00;;;7.30;99.90;;;;;;5092446;28;20047;-62
2022/04/15 00:54:30;;;;;;;9.00;4.57;;;7.20;99.90;;;;;;5093215;28;20111;-62
2022/04/15 00:57:00;;;;;;;11.07;5.20;;;7.40;99.90;;;;;;5093287;28;20075;-62
2022/04/15 00:59:27;;;;;;;11.43;6.63;;;7.40;99.90;;;;;;5091313;28;20124;-62
2022/04/15 01:01:52;;;;;;;9.70;5.65;;;7.50;99.90;;;;;;5108233;28;20043;-62
2022/04/15 01:04:18;;;;;;;12.55;5.97;;;7.50;99.90;;;;;;5091718;28;20051;-62
2022/04/15 01:06:47;;;;;;;10.75;5.80;;;7.60;99.90;;;;;;5091119;28;20044;-62
2022/04/15 01:09:14;;;;;;;9.52;5.82;;;7.60;99.90;;;;;;5091436;28;20051;-62
2022/04/15 01:11:43;;;;;;;9.40;5.65;;;7.80;99.90;;;;;;5092993;28;20501;-62
2022/04/15 01:14:10;;;;;;;9.60;5.43;;;7.80;99.90;;;;;;5091569;28;20112;-62
2022/04/15 01:16:36;;;;;;;10.00;5.53;;;7.80;99.90;;;;;;5091619;28;20090;-62
2022/04/15 01:19:02;;;;;;;14.70;6.10;;;;;;;;;;5108885;28;20450;-62
2022/04/15 01:21:32;;;;;;;10.80;5.28;;;;;;;;;;5091441;28;20068;-62
2022/04/15 01:23:58;;;;;;;11.40;4.82;;;8.00;99.90;;;;;;5092251;28;20110;-62
2022/04/15 01:26:24;;;;;;;11.88;5.20;;;;;;;;;;5091891;28;20481;-62
2022/04/15 01:28:50;;;;;;;9.63;5.47;;;;;;;;;;5090305;28;20052;-62
2022/04/15 01:31:16;;;;;;;11.77;5.75;;;;;;;;;;5092472;28;20036;-62
2022/04/15 01:33:42;;;;;;;13.23;5.13;;;;;;;;;;5090519;28;20035;-62
2022/04/15 01:36:08;;;;;;;8.85;4.70;;;;;;;;;;5092308;28;20045;-62
2022/04/15 01:38:36;;;;;;;9.73;4.90;;;;;;;;;;5093060;28;20048;-62
2022/04/15 01:41:02;;;;;;;9.75;4.22;;;;;;;;;;5090673;28;20067;-62
2022/04/15 01:43:28;;;;;;;10.55;4.35;;;;;;;;;;5092054;28;20031;-62
2022/04/15 01:45:54;;;;;;;10.55;4.95;;;;;;;;;;5091667;28;20059;-62
2022/04/15 01:48:20;;;;;;;12.00;5.70;;;;;;;;;;5092025;28;20082;-62
2022/04/15 01:50:46;;;;;;;8.82;4.95;;;;;;;;;;5091403;28;20075;-62
2022/04/15 01:53:12;;;;;;;11.00;4.28;;;;;;;;;;5091979;28;20132;-62
2022/04/15 01:55:38;;;;;;;12.57;5.10;;;;;;;;;;5089856;28;20082;-62
2022/04/15 01:58:04;;;;;;;9.52;4.93;;;;;;;;;;5091502;28;20123;-62
2022/04/15 02:00:30;;;;;;;12.25;4.53;;;;;;;;;;5091308;28;20506;-62
2022/04/15 02:02:56;;;;;;;10.52;4.15;;;;;;;;;;5090234;28;20044;-62
2022/04/15 02:05:22;;;;;;;10.15;4.75;;;;;;;;;;5091274;28;20089;-62
2022/04/15 02:07:48;;;;;;;8.35;4.55;;;;;;;;;;5091521;28;20067;-62
2022/04/15 02:10:14;;;;;;;11.68;5.65;;;;;;;;;;5091381;28;20052;-62
2022/04/15 02:12:40;;;;;;;9.82;4.63;;;;;;;;;;5091673;28;20046;-62
2022/04/15 02:15:07;;;;;;;10.77;5.03;;;;;;;;;;5089990;28;20110;-62
2022/04/15 02:17:33;;;;;;;12.30;4.75;;;;;;;;;;5091544;28;20449;-62
2022/04/15 02:19:59;;;;;;;10.07;5.88;;;;;;;;;;5092325;28;20032;-62
2022/04/15 02:22:25;;;;;;;13.98;6.32;;;;;;;;;;5092448;28;20039;-62
2022/04/15 02:24:51;;;;;;;13.32;6.22;;;;;;;;;;5090853;28;20097;-62
2022/04/15 02:27:17;;;;;;;15.45;6.60;;;;;;;;;;5092176;28;20071;-62
2022/04/15 02:29:43;;;;;;;12.73;5.53;;;;;;;;;;5091594;28;20052;-62
2022/04/15 02:32:09;;;;;;;12.77;6.13;;;;;;;;;;5089637;28;20106;-62
2022/04/15 02:34:35;;;;;;;13.88;5.65;;;;;;;;;;5092212;28;20480;-62
2022/04/15 02:37:01;;;;;;;16.23;6.53;;;;;;;;;;5072996;28;20044;-62
2022/04/15 02:39:27;;;;;;;16.30;7.13;;;;;;;;;;5090848;28;20047;-62
2022/04/15 02:41:56;;;;;;;17.83;8.25;;;;;;;;;;5073044;28;20044;-62
2022/04/15 02:44:22;;;;;;;12.27;7.18;;;;;;;;;;5073536;28;20366;-62
2022/04/15 02:46:48;;;;;;;17.17;7.03;;;;;;;;;;5091782;28;20044;-62
2022/04/15 02:49:15;;;;;;;11.95;5.68;;;;;;;;;;5092074;28;20040;-62
2022/04/15 02:51:41;;;;;;;12.48;6.57;;;;;;;;;;5091040;28;20122;-62
2022/04/15 02:54:07;;;;;;;11.80;6.93;;;;;;;;;;5090393;28;20130;-62
2022/04/15 02:56:33;;;;;;;13.75;7.35;;;;;;;;;;5091091;28;20550;-62
2022/04/15 02:58:59;;;;;;;14.27;7.82;;;;;;;;;;5091034;28;20044;-62
2022/04/15 03:01:25;;;;;;;14.38;7.00;;;;;;;;;;5091989;28;20032;-62
2022/04/15 03:03:51;;;;;;;13.18;7.35;;;;;;;;;;5091749;28;20044;-62
2022/04/15 03:06:17;;;;;;;13.82;6.65;;;;;;;;;;5091182;28;20044;-62
2022/04/15 03:08:43;;;;;;;13.45;6.53;;;;;;;;;;5091044;28;20044;-62
2022/04/15 03:11:09;;;;;;;11.63;6.53;;;;;;;;;;5095002;28;20574;-62
2022/04/15 03:13:35;;;;;;;12.18;7.07;;;;;;;;;;5093360;28;20052;-62
2022/04/15 03:16:02;;;;;;;14.95;6.82;;;;;;;;;;5094059;28;20046;-62
2022/04/15 03:18:28;;;;;;;11.98;6.38;;;;;;;;;;5077370;28;20044;-62
2022/04/15 03:20:54;;;;;;;10.65;5.72;;;;;;;;;;5094163;28;20032;-62
2022/04/15 03:23:20;;;;;;;10.65;6.38;;;;;;;;;;5094061;28;20485;-62
2022/04/15 03:25:46;;;;;;;11.38;7.25;;;;;;;;;;5094684;28;20396;-62
2022/04/15 03:28:13;;;;;;;19.05;9.45;;;;;;;;;;5093004;28;20092;-62
2022/04/15 03:30:39;;;;;;;14.88;9.20;;;;;;;;;;5095137;28;20040;-62
2022/04/15 03:33:05;;;;;;;19.73;9.77;;;;;;;;;;5093591;28;20047;-62
2022/04/15 03:35:31;;;;;;;19.23;12.32;;;;;;;;;;5093588;28;20067;-62
2022/04/15 03:37:57;;;;;;;16.95;10.93;;;;;;;;;;5093570;28;20043;-62
2022/04/15 03:40:23;;;;;;;18.58;11.88;;;;;;;;;;5093197;28;20492;-62
2022/04/15 03:42:51;;;;;;;16.80;10.07;;;;;;;;;;5093440;28;20492;-62
2022/04/15 03:45:22;;;;;;;16.98;9.63;;;;;;;;;;5094223;28;20130;-62
2022/04/15 03:47:52;;;;;;;15.98;10.38;;;;;;;;;;5092950;28;20488;-62
2022/04/15 03:50:18;;;;;;;15.40;9.85;;;;;;;;;;5094946;28;20070;-62
2022/04/15 03:52:48;;;;;;;15.05;9.20;;;;;;;;;;5094493;28;20399;-62
2022/04/15 03:55:15;;;;;;;15.45;9.02;;;;;;;;;;5092206;28;20032;-62
2022/04/15 03:57:41;;;;;;;13.45;8.57;;;;;;;;;;5094539;28;20046;-62
2022/04/15 04:00:09;;;;;;;14.85;8.57;;;;;;;;;;5092854;28;20060;-62
2022/04/15 04:02:35;;;;;;;13.30;8.15;;;;;;;;;;5092530;28;20481;-62
2022/04/15 04:05:01;;;;;;;13.02;8.07;;;;;;;;;;5092330;28;20430;-62
2022/04/15 04:07:27;;;;;;;18.40;9.52;;;;;;;;;;5094705;28;20040;-62
2022/04/15 04:09:53;;;;;;;10.45;7.05;;;;;;;;;;5093170;28;20070;-62
2022/04/15 04:12:19;;;;;;;13.98;7.97;;;;;;;;;;5093901;28;20519;-62
2022/04/15 04:14:45;;;;;;;12.50;7.55;;;;;;;;;;5076105;28;20058;-62
2022/04/15 04:17:11;;;;;;;10.70;6.18;;;;;;;;;;5092198;28;20534;-62
2022/04/15 04:19:37;;;;;;;8.80;5.40;;;;;;;;;;5093662;28;20105;-62
2022/04/15 04:22:04;;;;;;;8.82;5.45;;;;;;;;;;5092077;28;20445;-62
2022/04/15 04:24:30;;;;;;;8.50;5.63;;;;;;;;;;5093200;28;20043;-62
2022/04/15 04:26:56;;;;;;;9.07;5.38;;;;;;;;;;5094046;28;20139;-62
2022/04/15 04:29:22;;;;;;;9.77;5.65;;;;;;;;;;5093868;28;20075;-62
2022/04/15 04:31:48;;;;;;;8.38;5.15;;;;;;;;;;5092970;28;20047;-62
2022/04/15 04:34:14;;;;;;;9.38;4.97;;;;;;;;;;5093845;28;20047;-62
2022/04/15 04:36:40;;;;;;;8.75;5.15;;;;;;;;;;5091688;28;20044;-62
2022/04/15 04:39:08;;;;;;;8.73;5.47;;;;;;;;;;5092703;28;20044;-62
2022/04/15 04:41:34;;;;;;;8.35;4.53;;;;;;;;;;5075477;28;20087;-62
2022/04/15 04:44:00;;;;;;;8.73;5.10;;;;;;;;;;5091685;28;20051;-62
2022/04/15 04:46:26;;;;;;;8.10;4.28;;;;;;;;;;5093316;28;20558;-62
2022/04/15 04:48:52;;;;;;;6.47;3.67;;;;;;;;;;5090403;28;20040;-62
2022/04/15 04:51:18;;;;;;;6.25;3.88;;;;;;;;;;5093211;28;20401;-62
2022/04/15 04:53:44;;;;;;;6.65;3.85;;;;;;;;;;5075169;28;20507;-62
2022/04/15 04:56:10;;;;;;;6.78;3.58;;;;;;;;;;5093301;28;20450;-62
2022/04/15 04:58:36;;;;;;;6.25;3.60;;;;;;;;;;5092638;28;20127;-62
2022/04/15 05:01:02;;;;;;;8.27;3.80;;;;;;;;;;5093309;28;20036;-62
2022/04/15 05:03:28;;;;;;;7.57;3.38;;;;;;;;;;5092010;28;20392;-62
2022/04/15 05:05:54;;;;;;;6.88;3.72;;;;;;;;;;5092136;28;20044;-62
2022/04/15 05:08:20;;;;;;;5.50;3.58;;;;;;;;;;5092050;28;20056;-62
2022/04/15 05:10:46;;;;;;;6.75;3.95;;;;;;;;;;5093301;28;20052;-62
2022/04/15 05:13:12;;;;;;;8.02;3.78;;;;;;;;;;5092554;28;20040;-62
2022/04/15 05:15:38;;;;;;;7.10;3.92;;;;;;;;;;5091733;28;20043;-62
2022/04/15 05:18:04;;;;;;;5.53;3.53;;;;;;;;;;5091181;28;20127;-62
2022/04/15 05:20:32;;;;;;;5.00;2.90;;;;;;;;;;5092105;28;20040;-62
2022/04/15 05:22:58;;;;;;;6.82;2.97;;;;;;;;;;5093123;28;20040;-62
2022/04/15 05:25:25;;;;;;;6.40;3.00;;;;;;;;;;5091580;28;20445;-62
2022/04/15 05:27:52;;;;;;;6.05;2.97;;;;;;;;;;5090819;28;20044;-62
2022/04/15 05:30:18;;;;;;;4.93;2.30;;;;;;;;;;5091036;28;20051;-62
2022/04/15 05:32:44;;;;;;;5.95;2.20;;;;;;;;;;5089730;28;20083;-62
2022/04/15 05:35:10;;;;;;;4.43;2.20;;;;;;;;;;5092613;28;20072;-62
2022/04/15 05:37:36;;;;;;;4.55;2.17;;;;;;;;;;5090726;28;20062;-62
2022/04/15 05:40:03;;;;;;;5.43;2.20;;;;;;;;;;5091643;28;20551;-62
2022/04/15 05:42:29;;;;;;;5.15;2.38;;;;;;;;;;5092437;28;20389;-62
2022/04/15 05:44:55;;;;;;;5.55;2.80;;;;;;;;;;5089421;28;20427;-62
2022/04/15 05:47:21;;;;;;;5.22;2.83;;;;;;;;;;5092071;28;20162;-62
2022/04/15 05:49:47;;;;;;;4.85;2.60;;;;;;;;;;5090939;28;20036;-62
2022/04/15 05:52:14;;;;;;;6.38;2.72;;;;;;;;;;5091538;28;20400;-62
2022/04/15 05:54:40;;;;;;;6.07;3.30;;;;;;;;;;5091576;28;20044;-62
2022/04/15 05:57:06;;;;;;;5.47;3.15;;;;;;;;;;5091052;28;20055;-62
2022/04/15 05:59:32;;;;;;;6.22;3.70;;;;;;;;;;5092270;28;20048;-62
2022/04/15 06:01:58;;;;;;;7.60;3.47;;;;;;;;;;5090859;28;20036;-62
2022/04/15 06:04:24;;;;;;;7.45;4.50;;;;;;;;;;5091008;28;20044;-62
2022/04/15 06:06:50;;;;;;;8.55;4.25;;;;;;;;;;5091745;28;20048;-62
2022/04/15 06:09:16;;;;;;;9.95;5.18;;;;;;;;;;5091532;28;20055;-62
2022/04/15 06:11:42;;;;;;;7.22;4.07;;;;;;;;;;5092187;28;20044;-62
2022/04/15 06:14:08;;;;;;;6.75;4.22;;;;;;;;;;5091563;28;20036;-62
2022/04/15 06:16:37;;;;;;;10.65;4.78;;;;;;;;;;5091287;28;20560;-62
2022/04/15 06:19:04;;;;;;;7.85;4.55;;;;;;;;;;5092039;28;20488;-62
2022/04/15 06:21:31;;;;;;;8.38;4.68;;;;;;;;;;5091410;28;20036;-62
2022/04/15 06:23:57;;;;;;;7.43;4.45;;;;;;;;;;5090151;28;20040;-62
2022/04/15 06:26:23;;;;;;;8.27;4.70;;;;;;;;;;5092256;28;20075;-62
2022/04/15 06:28:49;;;;;;;6.70;4.28;;;;;;;;;;5091387;28;20078;-62
2022/04/15 06:31:15;;;;;;;8.30;5.00;;;;;;;;;;5090591;28;20047;-62
2022/04/15 06:33:41;;;;;;;8.65;5.57;;;;;;;;;;5089641;28;20059;-62
2022/04/15 06:36:07;;;;;;;11.30;6.05;;;;;;;;;;5089736;28;20044;-62
2022/04/15 06:38:33;;;;;;;10.25;6.28;;;;;;;;;;5090791;28;20048;-62
2022/04/15 06:40:59;;;;;;;9.60;6.32;;;;;;;;;;5072605;28;20036;-61
2022/04/15 06:43:25;;;;;;;11.48;7.15;;;;;;;;;;5092193;28;20039;-62
2022/04/15 06:45:51;;;;;;;12.63;7.30;;;;;;;;;;5096104;28;20040;-61
2022/04/15 06:48:17;;;;;;;12.02;7.32;;;;;;;;;;5095093;28;20048;-62
2022/04/15 06:50:43;;;;;;;10.70;6.95;;;;;;;;;;5094692;28;20044;-62
2022/04/15 06:53:10;;;;;;;12.38;7.38;;;;;;;;;;5093933;28;20039;-62
2022/04/15 06:55:36;;;;;;;12.85;8.05;;;;;;;;;;5094294;28;20122;-62
2022/04/15 06:58:02;;;;;;;12.27;7.75;;;;;;;;;;5095567;28;20515;-62
2022/04/15 07:00:28;;;;;;;14.02;8.82;;;;;;;;;;5094507;28;20127;-62
2022/04/15 07:02:55;;;;;;;13.88;8.25;;;;;;;;;;5095648;28;20090;-62
2022/04/15 07:05:21;;;;;;;13.50;8.73;;;;;;;;;;5105011;28;20040;-62
2022/04/15 07:07:48;;;;;;;18.88;9.45;;;;;;;;;;5114280;28;20044;-62
2022/04/15 07:10:14;;;;;;;14.52;9.48;;;;;;;;;;5114677;28;20538;-62
2022/04/15 07:12:40;;;;;;;19.25;10.30;;;;;;;;;;5114091;28;20369;-62
2022/04/15 07:28:37;;;;;;;12.82;7.72;;;;;;;;;;5094226;28;20111;-62
2022/04/15 07:31:21;;;;;;;14.63;8.98;;;;;;;;;;5094972;28;20067;-62
2022/04/15 07:33:47;;;;;;;16.00;8.05;;;;;;;;;;5093902;28;20047;-62
2022/04/15 07:38:58;;;;;;;11.82;7.82;;;;;;;;;;5093403;28;20044;-62
2022/04/15 07:41:25;;;;;;;12.48;7.45;;;;;;;;;;5112799;28;20030;-62
2022/04/15 07:43:51;;;;;;;12.38;6.53;;;;;;;;;;5114613;28;20453;-62
2022/04/15 07:46:17;;;;;;;12.98;6.18;;;;;;;;;;5097147;28;20392;-62
2022/04/15 07:48:44;;;;;;;12.48;6.47;;;;;;;;;;5096451;28;20109;-62
2022/04/15 07:51:10;;;;;;;11.50;7.40;;;;;;;;;;5095056;28;20050;-62
2022/04/15 07:53:36;;;;;;;12.10;6.82;;;;;;;;;;5093796;28;20416;-62
2022/04/15 07:56:02;;;;;;;11.30;6.60;;;;;;;;;;5093374;28;20135;-62
2022/04/15 07:58:28;;;;;;;9.43;5.80;;;10.30;99.90;;;;;;5094457;28;20040;-62
2022/04/15 08:00:54;;;;;;;14.98;5.82;;;;;;;;;;5093792;28;20067;-62
2022/04/15 08:03:25;;;;;;;12.18;5.45;;;;;;;;;;5092003;28;20063;-62
2022/04/15 08:05:51;;;;;;;12.57;6.65;;;;;;;;;;5090876;28;20450;-62
2022/04/15 08:08:17;;;;;;;9.73;5.20;;;;;;;;;;5090312;28;20134;-62
2022/04/15 08:10:43;;;;;;;13.15;6.78;;;;;;;;;;5090439;28;20094;-62
2022/04/15 08:13:09;;;;;;;11.95;6.20;;;;;;;;;;5090574;28;20052;-62
2022/04/15 08:15:35;;;;;;;11.65;6.38;;;;;;;;;;5089099;28;20051;-62
2022/04/15 08:18:01;;;;;;;11.43;6.38;;;;;;;;;;5092090;28;20044;-62
2022/04/15 08:20:27;;;;;;;12.23;6.70;;;;;;;;;;5090635;28;20043;-62
2022/04/15 08:22:53;;;;;;;10.05;5.30;;;;;;;;;;5089554;28;20040;-62
2022/04/15 08:25:19;;;;;;;9.93;5.43;;;;;;;;;;5091957;28;20047;-62
2022/04/15 08:27:45;;;;;;;12.60;6.53;;;;;;;;;;5091325;28;20477;-62
2022/04/15 08:30:11;;;;;;;9.10;5.90;;;;;;;;;;5091282;28;20055;-62
2022/04/15 08:32:38;;;;;;;11.95;6.63;;;;;;;;;;5090679;28;20044;-62
2022/04/15 08:35:04;;;;;;;9.75;5.22;;;;;;;;;;5090129;28;20064;-62
2022/04/15 08:37:31;;;;;;;9.02;5.43;;;;;;;;;;5089033;28;20059;-62
2022/04/15 08:39:57;;;;;;;7.78;4.68;;;;;;;;;;5089330;28;20051;-62
2022/04/15 08:42:23;;;;;;;7.50;3.83;;;;;;;;;;5090853;28;20435;-62
2022/04/15 08:44:52;;;;;;;11.70;4.63;;;;;;;;;;5089120;28;20056;-63
2022/04/15 08:47:19;;;;;;;10.18;4.47;;;;;;;;;;5088458;28;20124;-62
2022/04/15 08:49:45;;;;;;;7.97;3.53;;;10.70;99.90;;;;;;5088513;28;20501;-64
2022/04/15 08:52:12;;;;;;;7.00;3.55;;;;;;;;;;5088482;28;20123;-63
2022/04/15 08:54:38;;;;;;;6.38;3.47;;;;;;;;;;5090371;28;20040;-62
2022/04/15 08:57:05;;;;;;;9.05;4.03;;;;;;;;;;5088435;28;20050;-63
2022/04/15 08:59:31;;;;;;;8.25;4.45;;;;;;;;;;5090843;28;20074;-62
2022/04/15 09:01:57;;;;;;;8.80;3.70;;;;;;;;;;5090568;28;20392;-61
2022/04/15 09:04:24;;;;;;;8.48;3.80;;;;;;;;;;5087620;28;20123;-62
2022/04/15 09:06:56;;;;;;;6.55;3.42;;;;;;;;;;5092313;28;20127;-62
2022/04/15 09:09:29;;;;;;;8.98;4.35;;;;;;;;;;5094726;28;20093;-62
2022/04/15 09:11:56;;;;;;;7.22;3.70;;;;;;;;;;5095204;28;20063;-63
2022/04/15 09:14:23;;;;;;;7.30;3.58;;;;;;;;;;5093692;28;20477;-62
2022/04/15 09:16:49;;;;;;;8.05;4.25;;;;;;;;;;5098937;28;20024;-62
2022/04/15 09:19:16;;;;;;;6.70;3.13;;;;;;;;;;5090752;28;20046;-62
2022/04/15 09:21:44;;;;;;;6.68;3.30;;;;;;;;;;5091735;28;20044;-62
2022/04/15 09:24:11;;;;;;;7.43;3.17;;;;;;;;;;5093098;28;20111;-62
2022/04/15 09:26:38;;;;;;;7.05;3.85;;;;;;;;;;5090311;28;20090;-62
2022/04/15 09:29:04;;;;;;;7.95;3.70;;;;;;;;;;5087806;28;20052;-62
2022/04/15 09:31:30;;;;;;;7.45;3.40;;;;;;;;;;5103733;28;20516;-62
2022/04/15 09:34:00;;;;;;;7.57;3.40;;;11.40;99.90;;;;;;5090610;28;20071;-63
2022/04/15 09:36:27;;;;;;;7.50;3.58;;;11.20;99.90;;;;;;5092934;28;20504;-62
2022/04/15 09:38:58;;;;;;;8.43;3.70;;;11.10;99.90;;;;;;5090655;28;20051;-62
2022/04/15 09:41:25;;;;;;;7.20;3.47;;;;;;;;;;5092090;28;20405;-62
2022/04/15 09:43:55;;;;;;;8.43;3.30;;;10.80;99.90;;;;;;5091921;28;20052;-62
2022/04/15 09:46:21;;;;;;;7.93;3.67;;;;;;;;;;5091715;28;20052;-62
2022/04/15 09:49:02;;;;;;;9.32;4.20;;;10.60;99.90;;;;;;5111148;28;20043;-63
2022/04/15 09:51:34;;;;;;;9.07;4.53;;;10.70;99.90;;;;;;5110183;28;20548;-63
2022/04/15 09:54:01;;;;;;;8.27;3.47;;;11.10;99.90;;;;;;5110943;28;20055;-62
2022/04/15 09:56:28;;;;;;;6.03;3.35;;;;;;;;;;5113023;28;20035;-63
2022/04/15 09:58:54;;;;;;;7.13;3.53;;;;;;;;;;5099653;28;20082;-63
2022/04/15 10:01:26;;;;;;;10.77;3.38;;;11.40;99.90;;;;;;5091455;28;20044;-62
2022/04/15 10:03:55;;;;;;;6.45;2.97;;;11.50;99.90;;;;;;5092789;28;20059;-62
2022/04/15 10:06:21;;;;;;;6.32;3.70;;;;;;;;;;5091350;28;20074;-62
2022/04/15 10:08:47;;;;;;;6.68;3.60;;;;;;;;;;5091427;28;20468;-62
2022/04/15 10:11:15;;;;;;;6.97;3.55;;;11.70;99.90;;;;;;5091356;28;20136;-62
2022/04/15 10:13:44;;;;;;;7.40;3.35;;;11.70;99.90;;;;;;5090797;28;20059;-62
2022/04/15 10:16:10;;;;;;;8.15;3.65;;;;;;;;;;5090374;28;20048;-62
2022/04/15 10:18:37;;;;;;;15.18;4.38;;;;;;;;;;5090675;28;20047;-62
2022/04/15 10:21:04;;;;;;;8.98;3.78;;;;;;;;;;5091911;28;20051;-61
2022/04/15 10:23:30;;;;;;;6.40;3.60;;;;;;;;;;5093628;28;20832;-61
2022/04/15 10:25:59;;;;;;;10.27;3.88;;;;;;;;;;5092169;28;20040;-61
2022/04/15 10:28:47;;;;;;;7.85;3.72;;;;;;;;;;5091144;28;20528;-61
2022/04/15 10:31:14;;;;;;;7.18;3.67;;;;;;;;;;5095814;28;20044;-61
2022/04/15 10:33:41;;;;;;;6.03;3.53;;;;;;;;;;5085126;28;20045;-61
2022/04/15 10:36:17;;;;;;;7.50;4.15;;;;;;;;;;5082951;28;20323;-61
2022/04/15 10:39:02;;;;;;;10.50;3.88;;;;;;;;;;5090993;28;20036;-61
2022/04/15 10:41:29;;;;;;;9.10;4.63;;;;;;;;;;5089804;28;20487;-61
2022/04/15 10:43:55;;;;;;;12.48;5.18;;;;;;;;;;5093055;28;20029;-61
2022/04/15 10:46:29;;;;;;;8.73;4.38;;;;;;;;;;5092376;28;20392;-62
2022/04/15 10:48:57;;;;;;;8.18;4.00;;;;;;;;;;5091942;28;20485;-61
2022/04/15 10:51:29;;;;;;;8.55;4.47;;;;;;;;;;5096259;28;20044;-62
2022/04/15 10:53:56;;;;;;;7.78;3.80;;;;;;;;;;5089942;28;20059;-62
2022/04/15 10:56:24;;;;;;;10.55;5.68;;;;;;;;;;5090720;28;20066;-62
2022/04/15 11:01:59;;;;;;;13.10;4.97;;;;;;;;;;5090028;28;20048;-62
2022/04/15 11:04:26;;;;;;;8.13;5.10;;;;;;;;;;5089467;28;20119;-62
2022/04/15 11:06:52;;;;;;;12.13;4.85;;;;;;;;;;5090521;28;20040;-64
2022/04/15 11:09:22;;;;;;;9.10;4.95;;;;;;;;;;5091708;28;20052;-65
2022/04/15 11:11:53;;;;;;;20.50;8.88;;;;;;;;;;5089015;28;20048;-70
2022/04/15 11:14:31;;;;;;;13.48;6.53;;;;;;;;;;5090584;28;20039;-65
2022/04/15 11:16:59;;;;;;;13.43;4.65;;;;;;;;;;5089898;28;20396;-65
2022/04/15 11:19:26;;;;;;;13.77;6.88;;;;;;;;;;5090019;28;20055;-65
2022/04/15 11:21:53;;;;;;;9.73;5.40;;;;;;;;;;5075470;28;20067;-65
2022/04/15 11:24:22;;;;;;;10.18;6.03;;;;;;;;;;5090847;28;20524;-65
2022/04/15 11:26:49;;;;;;;9.98;5.82;;;;;;;;;;5105221;28;20085;-65
2022/04/15 11:29:15;;;;;;;13.65;7.15;;;;;;;;;;5091283;28;20484;-65
2022/04/15 11:31:42;;;;;;;8.63;4.97;;;;;;;;;;5092503;28;20077;-66
2022/04/15 11:34:11;;;;;;;11.55;6.15;;;;;;;;;;5093881;28;20040;-65
2022/04/15 11:36:39;;;;;;;11.18;6.40;;;;;;;;;;5090457;28;20059;-65
2022/04/15 11:39:06;;;;;;;10.43;7.07;;;;;;;;;;5088538;28;20051;-65
2022/04/15 11:41:33;;;;;;;11.90;6.00;;;;;;;;;;5092581;28;20480;-65
2022/04/15 11:44:03;;;;;;;10.00;6.32;;;;;;;;;;5098946;28;20043;-64
2022/04/15 11:46:39;;;;;;;12.13;5.95;;;;;;;;;;5097918;28;20047;-63
2022/04/15 11:49:11;;;;;;;10.40;5.45;;;;;;;;;;5107517;28;20133;-65
2022/04/15 11:51:37;;;;;;;11.05;5.47;;;;;;;;;;5093698;28;20378;-65
2022/04/15 11:54:03;;;;;;;8.85;5.78;;;;;;;;;;5107055;28;20064;-65
2022/04/15 11:56:29;;;;;;;10.93;6.32;;;;;;;;;;5097538;28;20028;-65
2022/04/15 11:58:58;;;;;;;14.15;7.60;;;;;;;;;;5095726;28;20048;-65
2022/04/15 12:01:26;;;;;;;12.40;6.32;;;;;;;;;;5091085;28;20568;-65
2022/04/15 12:03:52;;;;;;;9.55;5.65;;;;;;;;;;5095375;28;20049;-65
2022/04/15 12:06:18;;;;;;;9.10;5.53;;;;;;;;;;5091080;28;20459;-66
2022/04/15 12:08:46;;;;;;;8.95;4.43;;;;;;;;;;5103374;28;20468;-66
2022/04/15 12:11:13;;;;;;;8.73;4.07;;;;;;;;;;5098681;28;20084;-65
2022/04/15 12:13:39;;;;;;;7.55;4.70;;;;;;;;;;5108796;28;20050;-65
2022/04/15 12:16:05;;;;;;;8.13;4.20;;;;;;;;;;5098741;28;20027;-65
2022/04/15 12:18:31;;;;;;;9.15;4.85;;;;;;;;;;5109841;28;20036;-66
2022/04/15 12:20:57;;;;;;;8.15;4.20;;;;;;;;;;5081345;28;20518;-66
2022/04/15 12:23:25;;;;;;;9.45;5.70;;;;;;;;;;5092255;28;20123;-65
2022/04/15 12:26:06;;;;;;;11.98;6.38;;;;;;;;;;5108456;28;20039;-66
2022/04/15 12:31:27;;;;;;;14.30;6.47;;;;;;;;;;5073010;28;20052;-67
2022/04/15 12:33:53;;;;;;;10.38;6.60;;;;;;;;;;5092094;28;20535;-67
2022/04/15 12:36:20;;;;;;;10.60;6.68;;;;;;;;;;5091888;28;20473;-67
2022/04/15 12:38:59;;;;;;;12.27;6.38;;;;;;;;;;5075600;28;20349;-66
2022/04/15 12:41:25;;;;;;;11.48;6.05;;;;;;;;;;5092045;28;20523;-70
2022/04/15 12:44:10;;;;;;;9.93;5.45;;;;;;;;;;5092252;28;20075;-67
2022/04/15 12:46:37;;;;;;;9.88;5.63;;;;;;;;;;5093733;28;20052;-67
2022/04/15 12:49:03;;;;;;;7.65;4.88;;;;;;;;;;5091025;28;20044;-67
2022/04/15 12:51:38;;;;;;;10.30;6.32;;;;;;;;;;5093949;28;20040;-68
2022/04/15 12:54:06;;;;;;;10.63;6.18;;;;;;;;;;5093080;28;20431;-67
2022/04/15 12:56:32;;;;;;;8.95;5.70;;;;;;;;;;5091348;28;20097;-68
2022/04/15 12:58:58;;;;;;;10.10;6.25;;;;;;;;;;5093313;28;20082;-68
2022/04/15 13:01:24;;;;;;;8.15;5.53;;;;;;;;;;5092011;28;20036;-68
2022/04/15 13:03:51;;;;;;;9.20;5.88;;;;;;;;;;5092516;28;20047;-68
2022/04/15 13:06:17;;;;;;;11.57;6.00;;;;;;;;;;5092502;28;20047;-68
2022/04/15 13:08:43;;;;;;;10.27;6.60;;;;;;;;;;5091567;28;20047;-68
2022/04/15 13:11:09;;;;;;;12.85;5.95;;;;;;;;;;5091265;28;20055;-68
2022/04/15 13:13:35;;;;;;;10.50;6.25;;;;;;;;;;5093298;28;20047;-69
2022/04/15 13:16:02;;;;;;;9.15;5.95;;;;;;;;;;5091744;28;20040;-69
2022/04/15 13:18:28;;;;;;;12.55;8.05;;;;;;;;;;5091445;28;20036;-69
2022/04/15 13:20:54;;;;;;;10.75;6.68;;;;;;;;;;5091738;28;20059;-69
2022/04/15 13:23:20;;;;;;;11.18;6.25;;;;;;;;;;5092384;28;20126;-67
2022/04/15 13:25:47;;;;;;;13.00;6.47;;;;;;;;;;5090904;28;20174;-66
2022/04/15 13:28:14;;;;;;;11.27;5.28;;;;;;;;;;5065440;28;20063;-67
2022/04/15 13:30:41;;;;;;;10.95;6.00;;;;;;;;;;5084962;28;20035;-67
2022/04/15 13:33:11;;;;;;;12.32;6.47;;;;;;;;;;5081528;28;20408;-66
2022/04/15 13:35:37;;;;;;;9.43;6.25;;;;;;;;;;5088197;28;20047;-66
2022/04/15 13:38:03;;;;;;;10.23;5.47;;;;;;;;;;5094771;28;20058;-67
2022/04/15 13:40:29;;;;;;;9.05;6.03;;;;;;;;;;5098365;28;20036;-67
2022/04/15 13:42:56;;;;;;;10.77;6.18;;;;;;;;;;5103794;28;20400;-67
2022/04/15 13:45:23;;;;;;;9.15;5.55;;;;;;;;;;5092695;28;20441;-67
2022/04/15 13:47:49;;;;;;;8.23;4.78;;;;;;;;;;5085514;28;20039;-67
2022/04/15 13:50:15;;;;;;;9.07;5.03;;;;;;;;;;5101243;28;20392;-66
2022/04/15 13:58:11;;;;;;;8.70;5.72;;;;;;;;;;5097601;28;20118;-66
2022/04/15 14:00:38;;;;;;;8.05;5.28;;;;;;;;;;5096661;28;20089;-65
2022/04/15 14:03:04;;;;;;;9.35;5.15;;;;;;;;;;5087571;28;20469;-65
2022/04/15 14:05:30;;;;;;;14.32;6.30;;;;;;;;;;5089608;28;20056;-65
2022/04/15 14:07:56;;;;;;;10.30;6.72;;;;;;;;;;5102543;28;20130;-65
2022/04/15 14:10:22;;;;;;;11.85;6.95;;;;;;;;;;5087842;28;20508;-65
2022/04/15 14:12:50;;;;;;;13.13;6.05;;;;;;;;;;5100764;28;20492;-65
2022/04/15 14:15:19;;;;;;;12.02;5.70;;;;;;;;;;5090826;28;20101;-65
2022/04/15 14:17:45;;;;;;;12.10;6.22;;;;;;;;;;5104544;28;20109;-66
2022/04/15 14:20:11;;;;;;;11.07;7.18;;;;;;;;;;5087543;28;20040;-66
2022/04/15 14:22:38;;;;;;;9.50;5.88;;;;;;;;;;5089656;28;20519;-66
2022/04/15 14:25:04;;;;;;;10.70;6.63;;;;;;;;;;5087406;28;20423;-66
2022/04/15 14:27:30;;;;;;;9.77;5.20;;;;;;;;;;5089042;28;20052;-66
2022/04/15 14:29:56;;;;;;;11.52;6.13;;;;;;;;;;5097060;28;20040;-64
2022/04/15 14:32:22;;;;;;;11.07;6.15;;;;;;;;;;5085301;28;20047;-62
2022/04/15 14:34:52;;;;;;;11.85;6.60;;;;;;;;;;5086869;28;20463;-62
2022/04/15 14:37:18;;;;;;;9.48;5.43;;;;;;;;;;5088978;28;20044;-62
2022/04/15 14:39:46;;;;;;;12.40;6.05;;;;;;;;;;5102665;28;20147;-62
2022/04/15 14:42:12;;;;;;;9.75;5.22;;;;;;;;;;5086226;28;20051;-62
2022/04/15 14:44:38;;;;;;;9.02;5.80;;;;;;;;;;5091667;28;20047;-62
2022/04/15 14:47:04;;;;;;;13.02;6.38;;;;;;;;;;5104296;28;20130;-62
2022/04/15 14:49:31;;;;;;;10.65;6.70;;;;;;;;;;5091637;28;20051;-62